Time;durP1;ratioP1;P1;durP2;ratioP2;P2;SDS_P1;SDS_P2;PMS_P1;PMS_P2;Temp;Humidity;BMP_temperature;BMP_pressure;BME280_temperature;BME280_humidity;BME280_pressure;Samples;Min_cycle;Max_cycle;Signal;HPM_P1;HPM_P2
2020/12/07 00:02:22;;;;;;;10.48;5.15;;;;;;;-3.72;57.05;102290.00;1769980;78;21172;-61
2020/12/07 00:04:51;;;;;;;10.18;4.87;;;;;;;-3.74;57.02;102289.98;1771667;80;21472;-61
2020/12/07 00:07:18;;;;;;;9.08;4.55;;;;;;;-3.77;57.10;102295.09;1769708;80;21543;-61
2020/12/07 00:09:48;;;;;;;9.20;4.72;;;;;;;-3.76;57.14;102290.84;1769961;80;21161;-61
2020/12/07 00:12:16;;;;;;;9.50;4.80;;;;;;;-3.78;57.04;102289.97;1772471;80;21653;-61
2020/12/07 00:14:45;;;;;;;9.73;4.40;;;;;;;-3.77;57.12;102296.38;1770775;78;21160;-61
2020/12/07 00:17:12;;;;;;;10.80;5.45;;;;;;;-3.76;57.15;102303.27;1769415;80;22095;-61
2020/12/07 00:19:40;;;;;;;10.15;4.62;;;;;;;-3.73;56.93;102299.88;1761960;80;21965;-61
2020/12/07 00:22:08;;;;;;;10.23;4.85;;;;;;;-3.77;56.85;102297.67;1757984;80;21524;-61
2020/12/07 00:24:35;;;;;;;13.38;5.50;;;;;;;-3.79;56.94;102297.23;1758000;80;21156;-61
2020/12/07 00:27:03;;;;;;;13.55;5.35;;;;;;;-3.81;57.05;102299.78;1758277;80;21204;-61
2020/12/07 00:29:32;;;;;;;10.93;4.90;;;;;;;-3.82;56.83;102294.63;1758485;80;21391;-61
2020/12/07 00:32:00;;;;;;;10.53;5.50;;;;;;;-3.84;56.85;102287.32;1756244;79;21257;-61
2020/12/07 00:34:28;;;;;;;9.30;4.97;;;;;;;-3.87;56.72;102294.56;1756828;80;21215;-60
2020/12/07 00:36:55;;;;;;;10.43;5.15;;;;;;;-3.90;57.02;102291.10;1756698;79;21854;-60
2020/12/07 00:39:23;;;;;;;14.87;5.40;;;;;;;-3.91;56.76;102292.83;1756788;80;21168;-60
2020/12/07 00:41:50;;;;;;;10.68;5.30;;;;;;;-3.95;56.60;102293.22;1757050;81;22414;-61
2020/12/07 00:44:18;;;;;;;11.38;4.95;;;;;;;-4.03;56.75;102293.55;1757150;80;21657;-61
2020/12/07 00:46:45;;;;;;;9.63;5.67;;;;;;;-4.09;56.97;102296.48;1757398;79;21212;-61
2020/12/07 00:49:13;;;;;;;10.25;4.45;;;;;;;-4.11;57.05;102295.17;1758200;80;21271;-61
2020/12/07 00:51:40;;;;;;;11.20;5.42;;;;;;;-4.12;57.20;102286.61;1757352;80;21191;-60
2020/12/07 00:54:08;;;;;;;10.63;6.00;;;;;;;-4.16;57.05;102283.55;1757937;80;22281;-60
2020/12/07 00:56:35;;;;;;;10.75;4.67;;;;;;;-4.14;57.02;102289.98;1756892;80;21165;-61
2020/12/07 00:59:03;;;;;;;11.95;4.85;;;;;;;-4.17;56.92;102284.80;1756732;80;21263;-61
2020/12/07 01:01:31;;;;;;;15.60;6.03;;;;;;;-4.19;57.04;102279.64;1757005;80;21842;-60
2020/12/07 01:03:59;;;;;;;11.90;5.37;;;;;;;-4.24;57.03;102281.30;1757361;79;21199;-61
2020/12/07 01:06:29;;;;;;;12.93;5.70;;;;;;;-4.27;57.16;102279.12;1756646;80;21850;-61
2020/12/07 01:08:59;;;;;;;11.97;5.15;;;;;;;-4.29;57.06;102282.95;1730045;80;21220;-61
2020/12/07 01:11:27;;;;;;;12.60;6.33;;;;;;;-4.36;57.04;102280.73;1756504;80;21489;-60
2020/12/07 01:13:54;;;;;;;11.93;4.78;;;;;;;-4.41;57.18;102281.53;1757600;80;21640;-60
2020/12/07 01:16:23;;;;;;;11.38;5.90;;;;;;;-4.45;57.21;102276.78;1756861;80;21148;-60
2020/12/07 01:18:52;;;;;;;14.35;6.17;;;;;;;-4.51;57.14;102275.41;1758994;79;21240;-61
2020/12/07 01:21:20;;;;;;;12.33;5.92;;;;;;;-4.58;57.50;102272.33;1766252;79;21222;-61
2020/12/07 01:23:47;;;;;;;11.35;5.42;;;;;;;-4.62;57.59;102271.83;1766721;80;21647;-60
2020/12/07 01:26:15;;;;;;;10.58;5.28;;;;;;;-4.59;57.66;102269.30;1766501;80;21204;-60
2020/12/07 01:28:44;;;;;;;13.25;5.65;;;;;;;-4.58;57.38;102272.33;1768047;80;21551;-60
2020/12/07 01:31:12;;;;;;;13.68;6.17;;;;;;;-4.61;57.35;102258.16;1768018;80;22157;-61
2020/12/07 01:33:40;;;;;;;10.00;4.97;;;;;;;-4.60;57.37;102263.31;1766861;80;21208;-60
2020/12/07 01:36:07;;;;;;;11.48;5.70;;;;;;;-4.63;57.33;102269.69;1765916;80;21216;-60
2020/12/07 01:38:35;;;;;;;13.80;5.85;;;;;;;-4.64;57.23;102263.25;1766105;79;21183;-60
2020/12/07 01:41:03;;;;;;;8.30;5.15;;;;;;;-4.67;57.27;102261.08;1765771;79;21173;-60
2020/12/07 01:43:31;;;;;;;12.50;5.55;;;;;;;-4.67;57.10;102265.37;1766122;80;21505;-60
2020/12/07 01:46:00;;;;;;;10.43;5.47;;;;;;;-4.72;57.15;102261.88;1767683;80;21199;-61
2020/12/07 01:48:29;;;;;;;14.68;6.90;;;;;;;-4.78;57.27;102260.06;1765931;80;21175;-60
2020/12/07 01:50:59;;;;;;;13.20;6.87;;;;;;;-4.79;57.30;102262.61;1767266;80;21191;-60
2020/12/07 01:53:26;;;;;;;12.18;5.92;;;;;;;-4.80;57.41;102259.19;1766288;80;21662;-60
2020/12/07 01:55:54;;;;;;;10.32;4.95;;;;;;;-4.79;57.41;102258.36;1765606;79;22258;-61
2020/12/07 01:58:21;;;;;;;13.53;6.05;;;;;;;-4.80;57.26;102255.34;1767094;80;21211;-61
2020/12/07 02:00:49;;;;;;;11.70;4.90;;;;;;;-4.84;57.14;102257.44;1743303;80;21157;-61
2020/12/07 02:03:17;;;;;;;11.48;5.17;;;;;;;-4.88;57.33;102255.65;1767481;80;22003;-60
2020/12/07 02:05:45;;;;;;;14.25;5.80;;;;;;;-4.91;57.26;102248.78;1765961;79;21253;-60
2020/12/07 02:08:19;;;;;;;23.45;5.75;;;;;;;-4.93;57.28;102244.45;1765896;79;21212;-59
2020/12/07 02:21:38;;;;;;;11.15;5.10;;;;;;;-5.08;57.49;102261.38;1874272;75;22683;-62
2020/12/07 02:24:25;;;;;;;9.85;4.97;;;;;;;-5.14;57.57;102268.13;1846505;75;21222;-62
2020/12/07 02:27:09;;;;;;;10.55;4.90;;;;;;;-5.07;57.57;102267.37;1821197;75;22755;-61
2020/12/07 02:29:38;;;;;;;10.45;5.10;;;;;;;-5.06;57.45;102260.98;1795189;77;21183;-61
2020/12/07 02:32:16;;;;;;;10.40;4.50;;;;;;;-5.06;57.45;102266.52;1825996;76;21925;-61
2020/12/07 02:35:02;;;;;;;9.68;5.25;;;;;;;-5.03;57.51;102266.56;1826194;77;21194;-62
2020/12/07 02:37:32;;;;;;;13.48;5.30;;;;;;;-4.98;57.56;102272.62;1825624;76;22393;-61
2020/12/07 02:40:06;;;;;;;10.68;4.55;;;;;;;-4.95;57.30;102267.54;1828002;76;21177;-62
2020/12/07 02:42:36;;;;;;;10.10;4.35;;;;;;;-4.96;56.91;102261.98;1825073;76;21174;-61
2020/12/07 02:45:13;;;;;;;9.45;4.78;;;;;;;-5.02;56.69;102259.31;1826061;76;22023;-61
2020/12/07 02:47:43;;;;;;;12.00;4.87;;;;;;;-5.06;56.67;102265.22;1826239;76;21582;-61
2020/12/07 02:50:12;;;;;;;10.68;4.67;;;;;;;-5.07;56.74;102258.39;1827905;76;22175;-61
2020/12/07 02:52:40;;;;;;;9.90;4.92;;;;;;;-5.09;56.68;102263.50;1827016;76;21369;-61
2020/12/07 02:55:10;;;;;;;8.83;4.28;;;;;;;-5.12;56.69;102262.16;1805048;77;21142;-61
2020/12/07 02:57:39;;;;;;;10.55;4.85;;;;;;;-5.14;56.65;102262.56;1825592;76;22442;-61
2020/12/07 03:00:09;;;;;;;10.63;4.70;;;;;;;-5.17;56.50;102264.22;1826557;76;21119;-61
2020/12/07 03:02:38;;;;;;;12.55;4.70;;;;;;;-5.24;56.48;102276.95;1802268;76;21209;-61
2020/12/07 03:05:08;;;;;;;11.03;4.33;;;;;;;-5.26;56.67;102281.20;1824986;76;21638;-59
2020/12/07 03:07:37;;;;;;;9.95;3.50;;;;;;;-5.24;56.75;102282.08;1826272;77;21209;-60
2020/12/07 03:10:05;;;;;;;9.88;4.58;;;;;;;-5.20;56.63;102279.57;1824532;76;23288;-60
2020/12/07 03:12:34;;;;;;;7.87;3.87;;;;;;;-5.20;56.79;102285.56;1827112;76;21166;-61
2020/12/07 03:15:03;;;;;;;8.10;4.12;;;;;;;-5.17;56.82;102290.74;1826372;76;21238;-60
2020/12/07 03:17:33;;;;;;;11.20;4.60;;;;;;;-5.14;56.54;102286.95;1824401;76;21182;-60
2020/12/07 03:20:00;;;;;;;7.40;3.55;;;;;;;-5.15;56.52;102289.06;1825769;76;21166;-60
2020/12/07 03:22:29;;;;;;;9.53;4.42;;;;;;;-5.15;56.50;102286.49;1796778;76;22324;-60
2020/12/07 03:25:00;;;;;;;14.68;5.45;;;;;;;-5.12;56.41;102286.97;1828376;76;21171;-60
2020/12/07 03:27:30;;;;;;;9.73;5.17;;;;;;;-5.14;56.09;102289.95;1806002;77;21194;-60
2020/12/07 03:29:59;;;;;;;8.28;4.42;;;;;;;-5.20;56.29;102282.99;1805640;77;21185;-60
2020/12/07 03:32:28;;;;;;;11.28;4.33;;;;;;;-5.18;56.44;102285.59;1804579;77;21145;-60
2020/12/07 03:34:56;;;;;;;11.85;5.05;;;;;;;-5.15;56.46;102282.64;1805286;77;21363;-60
2020/12/07 03:37:24;;;;;;;11.05;4.65;;;;;;;-5.11;56.41;102278.41;1804248;77;21195;-60
2020/12/07 03:39:54;;;;;;;10.72;4.90;;;;;;;-5.10;56.26;102277.16;1804459;78;21221;-61
2020/12/07 03:42:23;;;;;;;12.10;4.62;;;;;;;-5.07;56.32;102274.64;1806049;77;21222;-61
2020/12/07 03:44:51;;;;;;;10.48;5.10;;;;;;;-5.06;56.02;102269.08;1805051;77;21497;-61
2020/12/07 03:47:20;;;;;;;9.90;4.55;;;;;;;-5.09;55.97;102273.77;1803920;77;21197;-61
2020/12/07 03:49:48;;;;;;;12.63;4.40;;;;;;;-5.15;55.86;102269.81;1804005;78;21200;-62
2020/12/07 03:52:18;;;;;;;13.30;5.72;;;;;;;-5.20;56.09;102267.59;1803287;77;21167;-62
2020/12/07 03:54:46;;;;;;;11.88;5.00;;;;;;;-5.19;56.17;102265.48;1777983;77;21209;-61
2020/12/07 03:57:15;;;;;;;16.00;4.62;;;;;;;-5.16;55.99;102268.10;1804716;77;21184;-61
2020/12/07 03:59:45;;;;;;;8.93;4.67;;;;;;;-5.18;55.94;102262.05;1805283;77;21494;-61
2020/12/07 04:02:13;;;;;;;11.63;5.85;;;;;;;-5.22;55.72;102266.71;1804934;77;21165;-61
2020/12/07 04:04:47;;;;;;;11.33;4.85;;;;;;;-5.24;55.77;102269.69;1803053;77;21384;-62
2020/12/07 04:07:11;;;;;;;9.15;3.98;;;;;;;-5.26;55.87;102272.22;1803363;77;21834;-61
2020/12/07 04:09:39;;;;;;;11.48;4.62;;;;;;;-5.28;55.89;102272.62;1803253;77;21632;-62
2020/12/07 04:12:07;;;;;;;9.33;4.42;;;;;;;-5.35;56.04;102273.77;1801769;77;21655;-64
2020/12/07 04:14:37;;;;;;;10.43;4.62;;;;;;;-5.36;56.19;102274.59;1802273;77;21240;-69
2020/12/07 04:17:04;;;;;;;10.75;4.62;;;;;;;-5.33;56.24;102272.97;1800797;77;21264;-68
2020/12/07 04:19:32;;;;;;;10.80;4.25;;;;;;;-5.30;56.22;102270.43;1802540;77;21126;-68
2020/12/07 04:22:01;;;;;;;11.25;4.83;;;;;;;-5.30;56.00;102269.58;1802779;77;21182;-68
2020/12/07 04:24:29;;;;;;;8.43;4.22;;;;;;;-5.34;55.86;102269.09;1803778;77;21417;-68
2020/12/07 04:26:57;;;;;;;9.80;4.95;;;;;;;-5.37;56.09;102267.33;1825995;76;22361;-69
2020/12/07 04:29:25;;;;;;;8.93;4.70;;;;;;;-5.34;56.11;102272.95;1838837;75;21205;-68
2020/12/07 04:31:54;;;;;;;10.03;4.22;;;;;;;-5.29;56.26;102272.59;1836220;75;21209;-68
2020/12/07 04:34:21;;;;;;;8.23;4.08;;;;;;;-5.28;55.93;102269.17;1836177;75;21162;-67
2020/12/07 04:36:55;;;;;;;9.55;3.85;;;;;;;-5.28;55.92;102273.02;1836320;76;21236;-67
2020/12/07 04:39:23;;;;;;;11.33;5.35;;;;;;;-5.27;56.05;102270.91;1837753;76;21201;-67
2020/12/07 04:41:50;;;;;;;10.20;4.72;;;;;;;-5.27;56.00;102268.34;1838534;76;21614;-67
2020/12/07 04:44:19;;;;;;;9.08;4.35;;;;;;;-5.27;55.99;102264.50;1820196;76;21214;-68
2020/12/07 04:46:46;;;;;;;11.03;4.25;;;;;;;-5.29;56.21;102268.75;1838215;76;21182;-68
2020/12/07 04:49:15;;;;;;;10.50;5.15;;;;;;;-5.30;56.27;102256.74;1836364;76;21370;-68
2020/12/07 04:51:43;;;;;;;11.28;5.08;;;;;;;-5.28;56.27;102257.63;1838955;76;21614;-66
2020/12/07 04:54:12;;;;;;;11.97;5.72;;;;;;;-5.28;56.11;102259.80;1837838;76;21649;-66
2020/12/07 04:56:39;;;;;;;8.93;4.75;;;;;;;-5.29;56.20;102259.77;1838043;76;21157;-66
2020/12/07 04:59:08;;;;;;;12.37;5.22;;;;;;;-5.25;56.09;102256.39;1837493;76;21485;-67
2020/12/07 05:01:37;;;;;;;12.13;5.30;;;;;;;-5.24;55.88;102256.85;1817576;76;22042;-66
2020/12/07 05:04:05;;;;;;;8.70;4.30;;;;;;;-5.26;55.81;102248.27;1836746;75;21185;-68
2020/12/07 05:06:32;;;;;;;8.68;4.90;;;;;;;-5.24;55.84;102240.17;1836296;76;21181;-69
2020/12/07 05:09:00;;;;;;;12.90;4.67;;;;;;;-5.25;55.81;102239.28;1838519;75;21194;-70
2020/12/07 05:11:28;;;;;;;10.43;4.67;;;;;;;-5.23;55.94;102235.46;1837172;76;21166;-70
2020/12/07 05:14:10;;;;;;;14.78;4.70;;;;;;;-5.22;55.76;102238.05;1838983;76;21388;-70
2020/12/07 05:16:35;;;;;;;9.15;4.65;;;;;;;-5.24;55.82;102234.61;1820546;76;21720;-70
2020/12/07 05:19:10;;;;;;;10.82;3.75;;;;;;;-5.26;55.86;102234.16;1836155;76;21184;-69
2020/12/07 05:21:38;;;;;;;9.03;4.28;;;;;;;-5.32;55.95;102228.92;1822422;76;21107;-68
2020/12/07 05:24:06;;;;;;;8.83;4.83;;;;;;;-5.35;55.94;102238.70;1837222;75;21193;-69
2020/12/07 05:26:34;;;;;;;10.10;4.37;;;;;;;-5.38;55.98;102232.66;1833663;76;21362;-68
2020/12/07 05:29:08;;;;;;;9.10;4.65;;;;;;;-5.39;55.79;102238.66;1823765;77;21618;-69
2020/12/07 05:31:34;;;;;;;10.32;4.55;;;;;;;-5.42;55.91;102235.17;1825074;77;21155;-67
2020/12/07 05:34:01;;;;;;;8.45;4.05;;;;;;;-5.48;56.11;102235.10;1826631;77;21967;-66
2020/12/07 05:36:29;;;;;;;9.95;4.53;;;;;;;-5.48;56.12;102231.65;1781391;77;22660;-67
2020/12/07 05:38:57;;;;;;;9.38;4.53;;;;;;;-5.47;56.20;102244.50;1824704;77;21198;-67
2020/12/07 05:41:25;;;;;;;9.28;4.08;;;;;;;-5.42;56.23;102243.30;1822670;76;21234;-65
2020/12/07 05:43:52;;;;;;;13.30;4.40;;;;;;;-5.39;56.28;102246.35;1825941;76;21205;-65
2020/12/07 05:46:26;;;;;;;12.68;5.08;;;;;;;-5.35;56.37;102245.55;1823964;77;21634;-66
2020/12/07 05:48:56;;;;;;;9.58;4.72;;;;;;;-5.36;56.19;102245.98;1822295;77;21177;-68
2020/12/07 05:51:25;;;;;;;11.80;5.47;;;;;;;-5.39;56.04;102252.77;1824716;77;21306;-65
2020/12/07 05:53:53;;;;;;;13.35;4.90;;;;;;;-5.39;56.17;102255.33;1822234;76;21497;-69
2020/12/07 05:56:21;;;;;;;13.25;6.17;;;;;;;-5.41;56.27;102251.45;1825842;76;22643;-69
2020/12/07 05:59:13;;;;;;;10.63;4.50;;;;;;;-5.42;56.12;102253.56;1825146;77;21177;-66
2020/12/07 06:01:41;;;;;;;10.75;4.53;;;;;;;-5.43;56.21;102252.71;1825002;77;21657;-69
2020/12/07 06:04:09;;;;;;;9.48;5.00;;;;;;;-5.42;56.14;102258.70;1823635;77;22626;-69
2020/12/07 06:06:37;;;;;;;12.18;5.17;;;;;;;-5.39;56.30;102251.48;1822753;77;21375;-66
2020/12/07 06:09:07;;;;;;;10.95;4.75;;;;;;;-5.38;56.22;102257.89;1803124;77;21206;-69
2020/12/07 06:11:46;;;;;;;8.85;4.08;;;;;;;-5.36;56.08;102258.80;1823764;77;21183;-69
2020/12/07 06:14:14;;;;;;;8.90;4.42;;;;;;;-5.35;55.98;102265.64;1826719;77;21163;-70
2020/12/07 06:16:45;;;;;;;7.97;5.03;;;;;;;-5.35;55.94;102271.20;1826564;77;21232;-68
2020/12/07 06:19:16;;;;;;;11.20;5.60;;;;;;;-5.36;55.97;102268.19;1822239;77;21512;-70
2020/12/07 06:21:57;;;;;;;8.58;5.60;;;;;;;-5.36;56.21;102253.67;1825745;77;21182;-69
2020/12/07 06:24:40;;;;;;;9.35;4.25;;;;;;;-5.32;56.12;102258.43;1828388;77;21040;-68
2020/12/07 06:27:13;;;;;;;8.95;4.50;;;;;;;-5.27;56.18;102259.36;1832727;76;21126;-70
2020/12/07 06:30:01;;;;;;;14.40;5.42;;;;;;;-5.23;56.03;102247.01;1765856;79;21357;-69
2020/12/07 06:32:51;;;;;;;9.13;4.62;;;;;;;-5.21;55.96;102242.78;1777653;79;21201;-70
2020/12/07 06:35:20;;;;;;;13.38;5.30;;;;;;;-5.18;55.93;102250.94;1801143;78;21729;-68
2020/12/07 06:37:49;;;;;;;9.65;4.65;;;;;;;-5.17;55.85;102247.11;1777507;78;21557;-70
2020/12/07 06:40:24;;;;;;;8.88;4.15;;;;;;;-5.13;55.92;102254.00;1777025;78;21184;-70
2020/12/07 06:42:52;;;;;;;10.00;5.33;;;;;;;-5.09;55.99;102258.79;1768036;80;21210;-67
2020/12/07 06:45:31;;;;;;;10.15;4.78;;;;;;;-5.06;56.04;102254.56;1780638;79;21217;-61
2020/12/07 06:48:16;;;;;;;15.65;5.40;;;;;;;-4.98;56.01;102262.78;1770471;79;21460;-57
2020/12/07 06:50:45;;;;;;;14.60;5.20;;;;;;;-4.89;55.77;102255.23;1820078;77;21147;-62
2020/12/07 06:56:02;;;;;;;11.22;5.45;;;;;;;-4.79;55.54;102240.78;1798201;78;22749;-63
2020/12/07 06:58:39;;;;;;;13.55;5.60;;;;;;;-4.78;55.44;102238.67;1771582;79;21180;-63
2020/12/07 07:01:14;;;;;;;11.25;5.83;;;;;;;-4.74;55.07;102238.73;1772199;79;22301;-60
2020/12/07 07:03:52;;;;;;;9.40;5.47;;;;;;;-4.76;55.12;102245.53;1772930;79;21504;-64
2020/12/07 07:06:20;;;;;;;11.68;4.55;;;;;;;-4.77;55.12;102251.97;1770298;80;21252;-63
2020/12/07 07:08:49;;;;;;;9.60;5.12;;;;;;;-4.75;55.19;102250.27;1772140;79;21560;-62
2020/12/07 07:11:17;;;;;;;10.40;3.70;;;;;;;-4.73;55.33;102242.16;1772699;79;21168;-61
2020/12/07 07:13:49;;;;;;;11.08;4.85;;;;;;;-4.67;55.17;102243.53;1772004;79;21615;-61
2020/12/07 07:16:17;;;;;;;12.58;4.75;;;;;;;-4.63;54.91;102238.86;1772822;79;21151;-61
2020/12/07 07:18:45;;;;;;;11.05;4.65;;;;;;;-4.62;54.94;102243.56;1772198;79;21104;-62
2020/12/07 07:21:13;;;;;;;8.98;4.45;;;;;;;-4.62;54.85;102241.89;1771508;79;21230;-61
2020/12/07 07:23:42;;;;;;;12.40;4.95;;;;;;;-4.63;54.63;102245.28;1769263;80;21216;-62
2020/12/07 07:26:26;;;;;;;11.10;4.17;;;;;;;-4.61;54.71;102247.88;1768171;80;22700;-61
2020/12/07 07:28:52;;;;;;;12.33;4.50;;;;;;;-4.58;54.46;102246.20;1769476;79;21617;-61
2020/12/07 07:31:19;;;;;;;9.85;5.15;;;;;;;-4.57;54.45;102247.05;1770574;80;21674;-61
2020/12/07 07:33:47;;;;;;;11.05;4.85;;;;;;;-4.50;54.61;102245.03;1745076;79;21207;-59
2020/12/07 07:36:25;;;;;;;11.97;4.55;;;;;;;-4.40;54.64;102245.58;1771059;79;21223;-59
2020/12/07 07:38:58;;;;;;;20.32;5.45;;;;;;;-4.36;53.94;102248.61;1770537;80;22228;-60
2020/12/07 07:41:25;;;;;;;9.75;5.25;;;;;;;-4.38;53.95;102243.03;1773135;80;21186;-60
2020/12/07 07:43:55;;;;;;;7.97;3.85;;;;;;;-4.33;53.98;102243.94;1770797;79;21578;-60
2020/12/07 07:46:23;;;;;;;11.65;5.20;;;;;;;-4.28;53.95;102237.58;1771933;79;21203;-60
2020/12/07 08:00:31;;;;;;;7.22;3.58;;;;;;;-4.24;53.12;102237.60;1756813;79;21220;-62
2020/12/07 08:16:22;;;;;;;11.55;5.45;;;;;;;-3.95;53.28;102238.33;1757306;79;21133;-61
2020/12/07 08:31:51;;;;;;;10.95;5.37;;;;;;;-3.67;52.60;102221.88;1835950;75;22710;-62
2020/12/07 08:34:23;;;;;;;11.63;4.95;;;;;;;-3.73;52.38;102220.13;1810900;77;21497;-62
2020/12/07 08:37:01;;;;;;;14.68;6.22;;;;;;;-3.69;52.34;102214.58;1748754;78;22828;-64
2020/12/07 08:39:30;;;;;;;11.05;5.08;;;;;;;-3.68;52.70;102212.02;1721529;82;21204;-62
2020/12/07 08:41:59;;;;;;;12.45;4.45;;;;;;;-3.59;52.21;102218.52;1724992;82;21371;-61
2020/12/07 08:44:26;;;;;;;12.37;6.00;;;;;;;-3.53;51.93;102216.83;1723367;82;21211;-61
2020/12/07 08:46:54;;;;;;;11.30;5.10;;;;;;;-3.48;52.00;102208.32;1722686;80;21206;-61
2020/12/07 08:49:22;;;;;;;10.70;6.03;;;;;;;-3.41;51.85;102208.80;1724581;82;21176;-63
2020/12/07 08:51:49;;;;;;;11.00;4.97;;;;;;;-3.36;51.51;102206.26;1725366;82;21196;-59
2020/12/07 08:54:17;;;;;;;9.58;4.58;;;;;;;-3.34;51.59;102191.67;1724648;80;23608;-61
2020/12/07 08:56:44;;;;;;;12.95;5.42;;;;;;;-3.28;51.47;102191.70;1722882;82;21255;-61
2020/12/07 08:59:15;;;;;;;12.23;5.58;;;;;;;-3.23;51.55;102195.19;1722304;82;21228;-60
2020/12/07 09:01:43;;;;;;;11.60;5.42;;;;;;;-3.23;51.35;102203.32;1722645;82;21247;-62
2020/12/07 09:04:11;;;;;;;9.55;4.30;;;;;;;-3.21;51.74;102193.48;1722589;82;21216;-62
2020/12/07 09:06:40;;;;;;;8.93;4.78;;;;;;;-3.15;51.60;102187.49;1722739;82;21550;-60
2020/12/07 09:09:08;;;;;;;12.65;6.35;;;;;;;-3.06;51.57;102190.54;1723415;80;21192;-70
2020/12/07 09:11:35;;;;;;;10.40;5.85;;;;;;;-2.99;51.47;102191.03;1724625;82;21662;-64
2020/12/07 09:14:06;;;;;;;9.83;4.83;;;;;;;-2.90;51.42;102192.35;1722745;82;21228;-61
2020/12/07 09:16:33;;;;;;;12.03;5.65;;;;;;;-2.84;50.97;102190.22;1725019;82;21619;-61
2020/12/07 09:19:01;;;;;;;8.98;4.33;;;;;;;-2.81;50.64;102185.09;1722622;82;21378;-62
2020/12/07 09:21:29;;;;;;;11.35;5.50;;;;;;;-2.77;50.59;102187.24;1724159;82;21204;-60
2020/12/07 09:23:57;;;;;;;9.33;4.20;;;;;;;-2.78;50.30;102169.64;1725197;82;21469;-62
2020/12/07 09:26:24;;;;;;;15.83;5.80;;;;;;;-2.80;50.40;102172.21;1722959;82;21853;-61
2020/12/07 09:28:52;;;;;;;9.05;4.70;;;;;;;-2.78;50.53;102167.06;1725393;82;21638;-61
2020/12/07 09:31:19;;;;;;;10.20;4.10;;;;;;;-2.71;50.08;102170.53;1723758;80;21207;-61
2020/12/07 09:33:47;;;;;;;11.48;4.92;;;;;;;-2.70;49.88;102172.27;1722245;82;21183;-62
2020/12/07 09:37:28;;;;;;;12.25;5.75;;;;;;;-2.63;49.97;102164.55;1819066;75;22728;-62
2020/12/07 09:39:55;;;;;;;9.58;4.58;;;;;;;-2.65;50.22;102164.97;1789290;78;21171;-60
2020/12/07 09:42:23;;;;;;;14.75;6.12;;;;;;;-2.53;50.51;102165.44;1789739;79;21437;-61
2020/12/07 09:44:51;;;;;;;9.38;5.05;;;;;;;-2.46;50.43;102161.16;1789477;79;21225;-60
2020/12/07 09:47:19;;;;;;;10.80;5.33;;;;;;;-2.39;50.19;102159.45;1789860;79;21184;-60
2020/12/07 09:49:46;;;;;;;15.68;5.12;;;;;;;-2.36;49.84;102155.16;1790451;79;21207;-60
2020/12/07 09:52:14;;;;;;;13.40;5.72;;;;;;;-2.38;49.62;102151.73;1790211;79;21422;-63
2020/12/07 09:54:41;;;;;;;13.00;5.67;;;;;;;-2.36;49.62;102149.16;1789635;79;22175;-61
2020/12/07 09:57:09;;;;;;;11.45;4.83;;;;;;;-2.37;49.95;102146.13;1788926;77;21139;-62
2020/12/07 09:59:38;;;;;;;12.35;5.12;;;;;;;-2.40;50.42;102136.69;1788553;79;22523;-62
2020/12/07 10:02:05;;;;;;;9.85;4.72;;;;;;;-2.37;50.42;102137.11;1789553;77;21139;-60
2020/12/07 10:04:33;;;;;;;10.20;5.03;;;;;;;-2.30;50.21;102135.00;1788574;79;21159;-60
2020/12/07 10:07:01;;;;;;;11.10;4.80;;;;;;;-2.30;49.92;102135.00;1787363;77;23604;-60
2020/12/07 10:09:29;;;;;;;10.60;5.42;;;;;;;-2.29;49.71;102125.09;1725175;82;21180;-61
2020/12/07 10:11:59;;;;;;;8.20;4.30;;;;;;;-2.26;49.98;102125.10;1736527;80;21732;-60
2020/12/07 10:14:26;;;;;;;11.40;5.10;;;;;;;-2.19;49.78;102111.78;1788327;79;21184;-60
2020/12/07 10:16:54;;;;;;;12.37;5.45;;;;;;;-2.13;50.40;102125.98;1788679;79;22970;-59
2020/12/07 10:19:21;;;;;;;11.50;4.55;;;;;;;-2.04;49.77;102114.80;1789959;79;22172;-61
2020/12/07 10:21:49;;;;;;;14.18;5.70;;;;;;;-1.96;49.63;102118.25;1791646;79;21108;-60
2020/12/07 10:24:17;;;;;;;10.53;4.95;;;;;;;-1.93;49.38;102120.83;1791717;79;21188;-60
2020/12/07 10:26:45;;;;;;;12.35;6.05;;;;;;;-1.89;49.60;102121.25;1791178;79;21163;-59
2020/12/07 10:29:12;;;;;;;12.30;5.47;;;;;;;-1.91;49.55;102116.09;1789673;77;21175;-59
2020/12/07 10:31:42;;;;;;;12.53;5.60;;;;;;;-1.85;49.53;102098.88;1790341;79;21403;-59
2020/12/07 10:34:10;;;;;;;11.93;5.17;;;;;;;-1.82;49.33;102099.73;1787618;79;21237;-59
2020/12/07 10:36:38;;;;;;;11.95;5.08;;;;;;;-1.79;48.86;102097.59;1787985;79;21175;-60
2020/12/07 10:39:07;;;;;;;10.80;5.83;;;;;;;-1.79;48.65;102103.61;1787910;79;21187;-62
2020/12/07 10:41:35;;;;;;;9.23;4.78;;;;;;;-1.78;48.92;102095.42;1789458;79;21227;-61
2020/12/07 10:44:02;;;;;;;11.70;5.30;;;;;;;-1.79;48.78;102089.41;1790499;79;23059;-60
2020/12/07 10:46:30;;;;;;;12.60;5.25;;;;;;;-1.77;48.69;102092.84;1789702;79;21737;-60
2020/12/07 10:48:57;;;;;;;11.33;5.37;;;;;;;-1.74;48.84;102097.16;1788737;79;21579;-61
2020/12/07 10:51:25;;;;;;;20.25;5.78;;;;;;;-1.73;48.61;102085.54;1787513;79;21195;-62
2020/12/07 10:53:52;;;;;;;8.10;4.15;;;;;;;-1.71;48.27;102081.67;1788672;79;21682;-62
2020/12/07 10:56:21;;;;;;;12.55;4.58;;;;;;;-1.73;48.38;102082.08;1788380;79;21271;-61
2020/12/07 10:58:49;;;;;;;11.12;6.37;;;;;;;-1.76;48.35;102082.11;1788198;79;21160;-60
2020/12/07 11:01:17;;;;;;;10.23;4.95;;;;;;;-1.78;48.17;102077.36;1787299;79;21559;-61
2020/12/07 11:03:46;;;;;;;9.58;4.87;;;;;;;-1.80;48.43;102073.92;1792373;79;21498;-61
2020/12/07 11:08:56;;;;;;;9.33;4.42;;;;;;;-1.81;48.27;102070.50;1818096;76;22926;-62
2020/12/07 11:11:22;;;;;;;8.20;4.00;;;;;;;-1.80;48.46;102073.52;1796424;79;21768;-60
2020/12/07 11:13:51;;;;;;;12.60;5.15;;;;;;;-1.79;48.16;102067.48;1799287;79;21259;-60
2020/12/07 11:16:23;;;;;;;12.63;5.10;;;;;;;-1.75;48.30;102067.91;1797597;79;21558;-60
2020/12/07 11:18:52;;;;;;;8.43;4.45;;;;;;;-1.72;48.58;102064.02;1796613;79;21101;-59
2020/12/07 11:21:19;;;;;;;12.73;5.37;;;;;;;-1.69;48.37;102067.03;1796949;78;21663;-59
2020/12/07 11:23:48;;;;;;;9.25;4.50;;;;;;;-1.72;48.67;102074.34;1797060;77;21144;-60
2020/12/07 11:26:18;;;;;;;9.40;5.25;;;;;;;-1.77;48.37;102072.20;1797342;78;21367;-60
2020/12/07 11:28:47;;;;;;;13.85;5.55;;;;;;;-1.77;48.55;102055.42;1798346;79;21184;-59
2020/12/07 11:31:16;;;;;;;7.72;3.75;;;;;;;-1.77;48.21;102058.00;1797178;78;21208;-59
2020/12/07 11:33:45;;;;;;;10.08;5.03;;;;;;;-1.80;48.30;102051.58;1796987;79;21119;-59
2020/12/07 11:36:15;;;;;;;9.58;4.58;;;;;;;-1.74;49.02;102051.99;1796408;79;21160;-61
2020/12/07 11:39:18;;;;;;;11.35;5.15;;;;;;;-1.71;48.40;102055.42;1795969;79;22321;-59
2020/12/07 11:41:54;;;;;;;10.00;4.80;;;;;;;-1.71;48.60;102051.55;1798157;77;21521;-61
2020/12/07 11:44:15;;;;;;;10.90;4.60;;;;;;;-1.65;48.56;102051.11;1794960;79;21630;-61
2020/12/07 11:46:48;;;;;;;11.20;5.53;;;;;;;-1.55;48.02;102053.64;1797935;78;21199;-59
2020/12/07 11:49:13;;;;;;;10.75;5.22;;;;;;;-1.42;47.81;102051.05;1799588;78;21183;-59
2020/12/07 11:51:41;;;;;;;11.28;4.87;;;;;;;-0.80;46.74;102047.73;1795976;77;22718;-61
2020/12/07 11:54:09;;;;;;;10.43;4.62;;;;;;;-1.01;46.84;102066.38;1796209;79;21759;-62
2020/12/07 11:56:38;;;;;;;8.60;4.95;;;;;;;-1.06;46.99;102047.87;1796414;79;21176;-62
2020/12/07 11:59:07;;;;;;;7.25;4.12;;;;;;;-1.05;46.94;102050.89;1799043;78;21147;-61
2020/12/07 12:01:35;;;;;;;10.10;3.70;;;;;;;-1.04;46.87;102053.47;1794654;79;21188;-62
2020/12/07 12:04:04;;;;;;;10.25;5.05;;;;;;;-1.04;46.61;102044.42;1797523;78;21595;-61
2020/12/07 12:06:37;;;;;;;15.40;5.90;;;;;;;-1.03;46.75;102053.02;1798270;78;22506;-60
2020/12/07 12:09:07;;;;;;;9.28;4.20;;;;;;;-1.09;46.36;102044.88;1796876;77;21206;-62
2020/12/07 12:11:36;;;;;;;11.22;4.58;;;;;;;-1.15;46.60;102044.45;1766342;79;21183;-62
2020/12/07 12:14:06;;;;;;;11.08;5.22;;;;;;;-1.14;46.98;102047.92;1797468;78;21180;-62
2020/12/07 12:16:36;;;;;;;13.08;5.53;;;;;;;-1.12;46.78;102041.86;1797164;79;22944;-61
2020/12/07 12:19:26;;;;;;;11.95;4.35;;;;;;;-1.17;46.70;102036.31;1796120;79;21258;-60
2020/12/07 12:21:54;;;;;;;14.78;5.17;;;;;;;-1.19;46.94;102031.14;1800916;76;21616;-60
2020/12/07 12:24:22;;;;;;;9.00;4.25;;;;;;;-1.11;47.58;102028.50;1800183;78;21721;-60
2020/12/07 12:26:51;;;;;;;10.75;5.03;;;;;;;-1.06;47.73;102015.16;1799473;78;21752;-60